createdAt,value
2023-05-12T00:00:00.936Z,1017.4
2023-05-12T00:05:41.255Z,1017.3
2023-05-12T00:11:12.366Z,1017.3
2023-05-12T00:16:27.779Z,1017.3
2023-05-12T00:22:17.621Z,1017.3
2023-05-12T00:33:19.511Z,1017.1
2023-05-12T00:38:48.328Z,1017.1
2023-05-12T00:44:34.612Z,1017
2023-05-12T00:49:58.178Z,1017
2023-05-12T00:55:27.706Z,1017
2023-05-12T01:01:15.345Z,1016.9
2023-05-12T01:06:27.085Z,1016.8
2023-05-12T01:12:03.037Z,1016.9
2023-05-12T01:17:33.789Z,1016.8
2023-05-12T01:23:22.674Z,1016.9
2023-05-12T01:29:01.708Z,1016.9
2023-05-12T01:34:23.319Z,1016.8
2023-05-12T01:40:11.333Z,1016.9
2023-05-12T01:45:21.019Z,1017
2023-05-12T01:51:11.061Z,1017
2023-05-12T01:56:24.125Z,1016.9
2023-05-12T02:01:57.917Z,1016.9
2023-05-12T02:07:33.947Z,1016.9
2023-05-12T02:13:08.801Z,1016.9
2023-05-12T02:19:03.636Z,1016.9
2023-05-12T02:24:35.508Z,1016.8
2023-05-12T02:29:46.407Z,1016.8
2023-05-12T02:35:35.315Z,1016.8
2023-05-12T02:40:57.230Z,1016.9
2023-05-12T02:46:29.487Z,1016.8
2023-05-12T02:52:23.529Z,1016.8
2023-05-12T02:57:28.957Z,1016.7
2023-05-12T03:03:01.756Z,1016.7
2023-05-12T03:08:51.959Z,1016.7
2023-05-12T03:14:18.047Z,1016.6
2023-05-12T03:19:43.113Z,1016.7
2023-05-12T03:25:35.690Z,1016.6
2023-05-12T03:31:06.429Z,1016.6
2023-05-12T03:36:23.450Z,1016.6
2023-05-12T03:41:56.806Z,1016.6
2023-05-12T03:47:31.321Z,1016.6
2023-05-12T03:58:59.314Z,1016.5
2023-05-12T04:04:19.224Z,1016.4
2023-05-12T04:09:43.436Z,1016.5
2023-05-12T04:15:28.656Z,1016.4
2023-05-12T04:20:53.805Z,1016.5
2023-05-12T04:26:31.068Z,1016.5
2023-05-12T04:37:52.901Z,1016.6
2023-05-12T05:22:04.265Z,1016.8
2023-05-12T08:21:00.907Z,1015.6
2023-05-12T08:43:09.610Z,1015.4
2023-05-12T08:48:47.019Z,1015.3
2023-05-12T09:00:07.989Z,1015.1
2023-05-12T09:05:26.637Z,1014.8
2023-05-12T09:11:05.762Z,1014.8
2023-05-12T09:17:02.397Z,1014.9
2023-05-12T09:22:35.991Z,1015.2
2023-05-12T09:27:50.160Z,1015.2
2023-05-12T09:33:26.245Z,1015.3
2023-05-12T09:39:04.963Z,1015.2
2023-05-12T10:07:23.418Z,1014.3
2023-05-12T10:12:47.253Z,1014.3
2023-05-12T10:24:12.325Z,1014.4
2023-05-12T10:29:39.298Z,1014.4
2023-05-12T10:40:49.439Z,1014.3
2023-05-12T11:14:29.986Z,1014.2
2023-05-12T11:20:30.280Z,1014.3
2023-05-12T11:48:29.884Z,1014
2023-05-12T12:44:37.723Z,1013
2023-05-12T16:46:24.884Z,1013
2023-05-12T22:43:54.890Z,1016.6
2023-05-12T22:49:40.797Z,1016.6
2023-05-12T23:06:02.455Z,1016.9
